Time;durP1;ratioP1;P1;durP2;ratioP2;P2;SDS_P1;SDS_P2;PMS_P1;PMS_P2;Temp;Humidity;BMP_temperature;BMP_pressure;BME280_temperature;BME280_humidity;BME280_pressure;Samples;Min_cycle;Max_cycle;Signal;HPM_P1;HPM_P2
2023/01/16 00:01:16;;;;;;;;;;;15.70;59.70;;;;;;5098069;28;20332;-78
2023/01/16 00:03:42;;;;;;;;;;;15.60;59.80;;;;;;5096777;28;19908;-78
2023/01/16 00:06:07;;;;;;;;;;;15.60;60.00;;;;;;5096897;28;20192;-78
2023/01/16 00:08:33;;;;;;;;;;;15.60;60.30;;;;;;5096039;28;19907;-78
2023/01/16 00:11:00;;;;;;;;;;;15.50;60.30;;;;;;5096468;28;19918;-78
2023/01/16 00:13:25;;;;;;;;;;;15.50;60.50;;;;;;5096147;28;20331;-78
2023/01/16 00:15:51;;;;;;;;;;;15.50;60.70;;;;;;5096615;28;19916;-78
2023/01/16 00:18:17;;;;;;;;;;;15.40;60.80;;;;;;5097724;28;19913;-80
2023/01/16 00:20:43;;;;;;;;;;;15.40;60.90;;;;;;5096526;28;19934;-78
2023/01/16 00:23:10;;;;;;;;;;;15.40;61.10;;;;;;5097473;28;20344;-78
2023/01/16 00:25:39;;;;;;;;;;;15.30;61.30;;;;;;5097052;28;19908;-78
2023/01/16 00:28:04;;;;;;;;;;;15.30;61.50;;;;;;5096344;28;19981;-80
2023/01/16 00:30:30;;;;;;;;;;;15.30;61.80;;;;;;5095259;28;19917;-79
2023/01/16 00:32:55;;;;;;;;;;;15.30;61.90;;;;;;5094390;28;19908;-79
2023/01/16 00:35:21;;;;;;;;;;;15.20;62.10;;;;;;5094632;28;20251;-80
2023/01/16 00:37:47;;;;;;;;;;;15.20;62.20;;;;;;5094223;28;19962;-79
2023/01/16 00:40:13;;;;;;;;;;;15.20;62.40;;;;;;5095961;28;19939;-78
2023/01/16 00:42:38;;;;;;;;;;;15.20;62.40;;;;;;5096202;28;19923;-78
2023/01/16 00:45:04;;;;;;;;;;;15.10;62.50;;;;;;5095747;28;19909;-79
2023/01/16 00:47:30;;;;;;;;;;;15.10;62.60;;;;;;5095193;28;19951;-78
2023/01/16 00:49:56;;;;;;;;;;;15.10;62.80;;;;;;5095623;28;19962;-79
2023/01/16 00:52:22;;;;;;;;;;;15.10;62.90;;;;;;5094654;28;19908;-79
2023/01/16 00:54:48;;;;;;;;;;;15.00;63.00;;;;;;5095324;28;19916;-79
2023/01/16 00:57:13;;;;;;;;;;;15.00;63.20;;;;;;5094880;28;19908;-78
2023/01/16 00:59:39;;;;;;;;;;;15.00;63.30;;;;;;5094476;28;19923;-78
2023/01/16 01:02:04;;;;;;;;;;;15.00;63.40;;;;;;5095379;28;19999;-80
2023/01/16 01:04:30;;;;;;;;;;;15.00;63.50;;;;;;5095401;28;20010;-80
2023/01/16 01:06:56;;;;;;;;;;;14.90;63.60;;;;;;5094629;28;20028;-79
2023/01/16 01:09:21;;;;;;;;;;;14.90;63.80;;;;;;5095096;28;19939;-79
2023/01/16 01:11:47;;;;;;;;;;;14.90;63.90;;;;;;5096261;28;20003;-79
2023/01/16 01:14:13;;;;;;;;;;;14.90;64.10;;;;;;5096606;28;19999;-79
2023/01/16 01:16:40;;;;;;;;;;;14.90;64.10;;;;;;5096125;28;19955;-79
2023/01/16 01:19:05;;;;;;;;;;;14.90;64.20;;;;;;5095830;28;20226;-79
2023/01/16 01:21:31;;;;;;;;;;;14.80;64.30;;;;;;5095923;28;20005;-79
2023/01/16 01:23:57;;;;;;;;;;;14.80;64.50;;;;;;5096042;28;19908;-79
2023/01/16 01:26:22;;;;;;;;;;;14.80;64.60;;;;;;5096147;28;19972;-79
2023/01/16 01:28:48;;;;;;;;;;;14.70;64.60;;;;;;5095067;28;19927;-79
2023/01/16 01:31:14;;;;;;;;;;;14.70;64.70;;;;;;5095797;28;20254;-79
2023/01/16 01:33:40;;;;;;;;;;;14.70;64.90;;;;;;5094993;28;19912;-78
2023/01/16 01:36:06;;;;;;;;;;;14.70;65.00;;;;;;5096003;28;19919;-78
2023/01/16 01:38:32;;;;;;;;;;;14.70;65.10;;;;;;5097807;28;19922;-78
2023/01/16 01:40:57;;;;;;;;;;;14.70;65.20;;;;;;5100408;28;20006;-78
2023/01/16 01:43:43;;;;;;;;;;;14.60;65.20;;;;;;5099523;28;19916;-79
2023/01/16 01:46:15;;;;;;;;;;;14.70;65.40;;;;;;5099618;28;19913;-79
2023/01/16 01:48:41;;;;;;;;;;;14.60;65.50;;;;;;5098448;28;20027;-78
2023/01/16 01:51:09;;;;;;;;;;;14.60;65.60;;;;;;5099079;28;20392;-79
2023/01/16 01:53:44;;;;;;;;;;;14.60;65.60;;;;;;5099920;28;20633;-79
2023/01/16 01:56:17;;;;;;;;;;;14.60;65.70;;;;;;5099735;28;19912;-78
2023/01/16 01:58:44;;;;;;;;;;;14.50;65.80;;;;;;5100278;28;19908;-78
2023/01/16 02:01:10;;;;;;;;;;;14.60;65.90;;;;;;5099126;28;19908;-78
2023/01/16 02:03:39;;;;;;;;;;;14.50;66.00;;;;;;5100005;28;19919;-78
2023/01/16 02:06:07;;;;;;;;;;;14.50;66.10;;;;;;5099427;28;19999;-78
2023/01/16 02:08:33;;;;;;;;;;;14.50;66.20;;;;;;5099298;28;20006;-78
2023/01/16 02:10:58;;;;;;;;;;;14.50;66.30;;;;;;5099840;28;19908;-78
2023/01/16 02:13:29;;;;;;;;;;;14.50;66.40;;;;;;5100187;28;20061;-78
2023/01/16 02:21:31;;;;;;;;;;;14.40;66.70;;;;;;5100024;28;20239;-78
2023/01/16 02:23:59;;;;;;;;;;;14.40;66.80;;;;;;5098895;28;19919;-78
2023/01/16 02:26:35;;;;;;;;;;;14.40;66.90;;;;;;5099180;28;19995;-78
2023/01/16 02:29:20;;;;;;;;;;;14.40;67.00;;;;;;5099265;28;19939;-78
2023/01/16 02:31:49;;;;;;;;;;;14.40;66.90;;;;;;5099190;28;19909;-78
2023/01/16 02:34:45;;;;;;;;;;;14.40;66.90;;;;;;5099735;28;20277;-78
2023/01/16 02:37:20;;;;;;;;;;;14.40;67.00;;;;;;5063177;28;20163;-78
2023/01/16 02:39:49;;;;;;;;;;;14.40;66.90;;;;;;5099215;28;20188;-78
2023/01/16 02:42:33;;;;;;;;;;;14.40;66.90;;;;;;5098532;28;19935;-80
2023/01/16 02:45:01;;;;;;;;;;;14.40;66.90;;;;;;5098538;28;19980;-78
2023/01/16 02:47:31;;;;;;;;;;;14.40;66.90;;;;;;5097810;28;20293;-78
2023/01/16 02:50:03;;;;;;;;;;;14.40;66.90;;;;;;5098372;28;19919;-78
2023/01/16 02:52:43;;;;;;;;;;;14.40;66.80;;;;;;5098699;28;19908;-78
2023/01/16 02:55:23;;;;;;;;;;;14.50;66.80;;;;;;5098763;28;19970;-78
2023/01/16 02:57:52;;;;;;;;;;;14.50;66.70;;;;;;5099321;28;19923;-78
2023/01/16 03:00:20;;;;;;;;;;;14.50;66.70;;;;;;5098723;28;19908;-78
2023/01/16 03:02:45;;;;;;;;;;;14.50;66.70;;;;;;5099257;28;19908;-78
2023/01/16 03:05:11;;;;;;;;;;;14.50;66.70;;;;;;5098795;28;19919;-78
2023/01/16 03:07:56;;;;;;;;;;;14.50;66.60;;;;;;5098015;28;19908;-78
2023/01/16 03:10:29;;;;;;;;;;;14.50;66.70;;;;;;5098176;28;19927;-78
2023/01/16 03:13:11;;;;;;;;;;;14.50;66.60;;;;;;5097191;28;19923;-78
2023/01/16 03:15:44;;;;;;;;;;;14.50;66.60;;;;;;5098141;28;19994;-78
2023/01/16 03:18:18;;;;;;;;;;;14.40;66.50;;;;;;5096511;28;19974;-78
2023/01/16 03:21:02;;;;;;;;;;;14.40;66.40;;;;;;5098210;28;19909;-78
2023/01/16 03:23:46;;;;;;;;;;;14.40;66.40;;;;;;5097778;28;19908;-78
2023/01/16 03:26:14;;;;;;;;;;;14.50;66.40;;;;;;5097560;28;19908;-78
2023/01/16 03:28:52;;;;;;;;;;;14.40;66.40;;;;;;5098089;28;20294;-78
2023/01/16 03:31:36;;;;;;;;;;;14.40;66.40;;;;;;5098196;28;20167;-78
2023/01/16 03:34:25;;;;;;;;;;;14.40;66.50;;;;;;5097570;28;19908;-78
2023/01/16 03:36:55;;;;;;;;;;;14.30;66.60;;;;;;5097689;28;19913;-78
2023/01/16 03:39:26;;;;;;;;;;;14.30;66.70;;;;;;5098402;28;19948;-78
2023/01/16 03:41:54;;;;;;;;;;;14.30;66.70;;;;;;5097675;28;19909;-78
2023/01/16 03:44:34;;;;;;;;;;;14.20;66.90;;;;;;5098601;28;20416;-78
2023/01/16 03:47:00;;;;;;;;;;;14.20;67.10;;;;;;5098154;28;19916;-78
2023/01/16 03:49:32;;;;;;;;;;;14.20;67.10;;;;;;5098205;28;19931;-78
2023/01/16 03:51:59;;;;;;;;;;;14.20;67.30;;;;;;5096753;28;19908;-78
2023/01/16 03:54:30;;;;;;;;;;;14.10;67.30;;;;;;5096152;28;19971;-78
2023/01/16 03:57:11;;;;;;;;;;;14.10;67.40;;;;;;5096236;28;19999;-79
2023/01/16 03:59:38;;;;;;;;;;;14.10;67.50;;;;;;5096226;28;19980;-78
2023/01/16 04:02:07;;;;;;;;;;;14.10;67.90;;;;;;5096039;28;20007;-78
2023/01/16 04:04:42;;;;;;;;;;;14.90;64.90;;;;;;5094990;28;19908;-78
2023/01/16 04:07:10;;;;;;;;;;;15.70;60.70;;;;;;5095810;28;19908;-78
2023/01/16 04:09:40;;;;;;;;;;;16.20;59.00;;;;;;5096613;28;19912;-78
2023/01/16 04:12:06;;;;;;;;;;;16.40;58.20;;;;;;5096052;28;19908;-78
2023/01/16 04:14:34;;;;;;;;;;;16.60;57.70;;;;;;5096725;28;19923;-78
2023/01/16 04:16:59;;;;;;;;;;;16.80;57.20;;;;;;5096583;28;19912;-78
2023/01/16 04:19:26;;;;;;;;;;;17.10;56.70;;;;;;5096610;28;19908;-79
2023/01/16 04:21:52;;;;;;;;;;;17.30;56.20;;;;;;5096474;28;19908;-79
2023/01/16 04:24:26;;;;;;;;;;;17.40;55.90;;;;;;5096992;28;19919;-78
2023/01/16 04:26:51;;;;;;;;;;;17.50;55.70;;;;;;5096853;28;19919;-78
2023/01/16 04:29:17;;;;;;;;;;;17.50;55.50;;;;;;5096226;28;20014;-79
2023/01/16 04:31:44;;;;;;;;;;;17.60;55.30;;;;;;5095830;28;20452;-80
2023/01/16 04:34:10;;;;;;;;;;;17.80;55.00;;;;;;5094897;28;19909;-78
2023/01/16 04:36:36;;;;;;;;;;;17.90;54.70;;;;;;5094605;28;19955;-78
2023/01/16 04:39:01;;;;;;;;;;;18.00;54.60;;;;;;5096528;28;19908;-78
2023/01/16 04:41:42;;;;;;;;;;;18.10;54.50;;;;;;5096700;28;20369;-78
2023/01/16 04:44:08;;;;;;;;;;;18.10;54.40;;;;;;5096705;28;19908;-78
2023/01/16 04:46:34;;;;;;;;;;;18.20;54.30;;;;;;5096217;28;19915;-78
2023/01/16 04:49:00;;;;;;;;;;;18.30;54.20;;;;;;5095692;28;19916;-78
2023/01/16 04:51:28;;;;;;;;;;;18.40;54.10;;;;;;5097325;28;20277;-78
2023/01/16 04:53:54;;;;;;;;;;;18.50;53.90;;;;;;5096742;28;19959;-78
2023/01/16 04:56:19;;;;;;;;;;;18.50;53.80;;;;;;5097119;28;19955;-78
2023/01/16 04:58:45;;;;;;;;;;;18.60;53.70;;;;;;5097648;28;19908;-79
2023/01/16 05:01:11;;;;;;;;;;;18.60;53.60;;;;;;5095407;28;19919;-78
2023/01/16 05:03:36;;;;;;;;;;;18.60;53.50;;;;;;5096119;28;20181;-78
2023/01/16 05:06:04;;;;;;;;;;;18.70;53.50;;;;;;5096071;28;19908;-78
2023/01/16 05:08:30;;;;;;;;;;;18.70;53.40;;;;;;5095563;28;20357;-78
2023/01/16 05:11:01;;;;;;;;;;;18.80;53.20;;;;;;5094811;28;19912;-78
2023/01/16 05:13:27;;;;;;;;;;;18.90;53.20;;;;;;5097960;28;19908;-80
2023/01/16 05:15:52;;;;;;;;;;;18.90;53.10;;;;;;5100375;28;19972;-79
2023/01/16 05:18:18;;;;;;;;;;;18.90;53.10;;;;;;5099542;28;20002;-80
2023/01/16 05:20:44;;;;;;;;;;;19.00;53.10;;;;;;5098180;28;19909;-78
2023/01/16 05:23:10;;;;;;;;;;;19.00;53.10;;;;;;5097065;28;20773;-79
2023/01/16 05:25:36;;;;;;;;;;;19.00;53.10;;;;;;5097959;28;19912;-79
2023/01/16 05:28:02;;;;;;;;;;;19.00;53.00;;;;;;5097788;28;19920;-78
2023/01/16 05:30:28;;;;;;;;;;;19.00;53.00;;;;;;5097589;28;19916;-78
2023/01/16 05:32:53;;;;;;;;;;;19.00;53.00;;;;;;5097749;28;19909;-78
2023/01/16 05:35:22;;;;;;;;;;;19.00;52.90;;;;;;5098120;28;19951;-78
2023/01/16 05:37:48;;;;;;;;;;;19.00;52.90;;;;;;5096811;28;19954;-78
2023/01/16 05:40:13;;;;;;;;;;;19.00;52.90;;;;;;5096867;28;19955;-78
2023/01/16 05:42:42;;;;;;;;;;;19.00;53.00;;;;;;5096631;28;19973;-78
2023/01/16 05:45:07;;;;;;;;;;;18.90;53.10;;;;;;5097297;28;19908;-78
2023/01/16 05:47:34;;;;;;;;;;;18.80;53.10;;;;;;5098263;28;20334;-78
2023/01/16 05:50:00;;;;;;;;;;;18.80;53.20;;;;;;5097685;28;19916;-78
2023/01/16 05:52:25;;;;;;;;;;;18.80;53.30;;;;;;5097518;28;19918;-78
2023/01/16 05:54:51;;;;;;;;;;;18.70;53.30;;;;;;5098375;28;20193;-78
2023/01/16 05:57:18;;;;;;;;;;;18.70;53.40;;;;;;5097891;28;19908;-78
2023/01/16 05:59:47;;;;;;;;;;;18.60;53.40;;;;;;5096836;28;20329;-78
2023/01/16 06:02:12;;;;;;;;;;;18.60;53.50;;;;;;5096825;28;20273;-78
2023/01/16 06:04:38;;;;;;;;;;;18.60;53.50;;;;;;5096308;28;19918;-78
2023/01/16 06:07:04;;;;;;;;;;;18.60;53.50;;;;;;5095660;28;19908;-78
2023/01/16 06:09:29;;;;;;;;;;;18.50;53.50;;;;;;5097221;28;19912;-78
2023/01/16 06:11:55;;;;;;;;;;;18.40;53.60;;;;;;5096973;28;19918;-78
2023/01/16 06:14:20;;;;;;;;;;;18.40;53.70;;;;;;5097100;28;19995;-80
2023/01/16 06:16:49;;;;;;;;;;;18.40;53.70;;;;;;5097874;28;20364;-78
2023/01/16 06:19:15;;;;;;;;;;;18.40;53.60;;;;;;5097637;28;19908;-78
2023/01/16 06:21:40;;;;;;;;;;;18.40;53.70;;;;;;5096040;28;19918;-78
2023/01/16 06:24:06;;;;;;;;;;;18.40;53.50;;;;;;5094580;28;19958;-78
2023/01/16 06:26:32;;;;;;;;;;;18.40;53.50;;;;;;5092096;28;19908;-80
2023/01/16 06:28:58;;;;;;;;;;;18.40;53.50;;;;;;5092595;28;19916;-78
2023/01/16 06:31:23;;;;;;;;;;;18.40;53.60;;;;;;5092478;28;19916;-78
2023/01/16 06:33:49;;;;;;;;;;;18.40;53.70;;;;;;5093095;28;19957;-78
2023/01/16 06:36:17;;;;;;;;;;;18.40;53.70;;;;;;5091597;28;20178;-78
2023/01/16 06:38:42;;;;;;;;;;;18.50;53.50;;;;;;5091498;28;20078;-78
2023/01/16 06:41:08;;;;;;;;;;;18.50;53.20;;;;;;5092530;28;20466;-78
2023/01/16 06:43:33;;;;;;;;;;;18.50;53.40;;;;;;5092295;28;19916;-79
2023/01/16 06:46:05;;;;;;;;;;;18.50;53.40;;;;;;5093775;28;19969;-79
2023/01/16 06:48:31;;;;;;;;;;;18.50;53.40;;;;;;5091342;28;19912;-78
2023/01/16 06:50:58;;;;;;;;;;;18.60;53.40;;;;;;5092015;28;19912;-78
2023/01/16 06:53:24;;;;;;;;;;;18.60;53.30;;;;;;5095453;28;19967;-78
2023/01/16 06:55:50;;;;;;;;;;;18.60;53.40;;;;;;5094719;28;20273;-79
2023/01/16 06:58:16;;;;;;;;;;;18.60;53.20;;;;;;5094619;28;19908;-78
2023/01/16 07:00:41;;;;;;;;;;;18.60;53.20;;;;;;5092108;28;19908;-78
2023/01/16 07:03:07;;;;;;;;;;;18.60;53.20;;;;;;5092451;28;19919;-78
2023/01/16 07:05:32;;;;;;;;;;;18.60;53.30;;;;;;5094828;28;19969;-78
2023/01/16 07:07:58;;;;;;;;;;;18.60;53.30;;;;;;5094045;28;19912;-78
2023/01/16 07:10:24;;;;;;;;;;;18.60;53.20;;;;;;5093426;28;19920;-78
2023/01/16 07:12:50;;;;;;;;;;;18.70;53.20;;;;;;5093939;28;20336;-78
2023/01/16 07:23:33;;;;;;;;;;;18.70;53.20;;;;;;5093123;28;19919;-78
2023/01/16 07:26:01;;;;;;;;;;;18.60;53.40;;;;;;5093011;28;19912;-78
2023/01/16 07:28:27;;;;;;;;;;;18.70;53.30;;;;;;5091753;28;19968;-78
2023/01/16 07:30:53;;;;;;;;;;;18.70;53.20;;;;;;5091788;28;19954;-78
2023/01/16 07:33:18;;;;;;;;;;;18.70;53.40;;;;;;5092317;28;19958;-78
2023/01/16 07:35:45;;;;;;;;;;;18.70;53.50;;;;;;5089931;28;20342;-78
2023/01/16 07:38:10;;;;;;;;;;;18.70;53.30;;;;;;5090522;28;19919;-79
2023/01/16 07:40:36;;;;;;;;;;;18.70;53.40;;;;;;5092928;28;19908;-79
2023/01/16 07:43:02;;;;;;;;;;;18.70;53.50;;;;;;5093065;28;19908;-79
2023/01/16 07:45:27;;;;;;;;;;;18.60;53.40;;;;;;5093962;28;19918;-78
2023/01/16 07:47:53;;;;;;;;;;;18.60;53.40;;;;;;5093353;28;20444;-79
2023/01/16 07:50:19;;;;;;;;;;;18.60;53.40;;;;;;5091003;28;19919;-79
2023/01/16 07:52:45;;;;;;;;;;;18.60;53.40;;;;;;5092731;28;19908;-79
2023/01/16 07:55:12;;;;;;;;;;;18.70;53.30;;;;;;5092882;28;19916;-79
2023/01/16 07:57:38;;;;;;;;;;;18.70;53.30;;;;;;5093422;28;19915;-79
2023/01/16 08:00:04;;;;;;;;;;;18.60;53.40;;;;;;5092007;28;19937;-78
2023/01/16 08:02:30;;;;;;;;;;;18.60;53.30;;;;;;5091737;28;20300;-79
2023/01/16 08:04:55;;;;;;;;;;;18.60;53.40;;;;;;5093213;28;19907;-79
2023/01/16 08:07:21;;;;;;;;;;;18.60;53.30;;;;;;5092436;28;19908;-79
2023/01/16 08:09:46;;;;;;;;;;;18.70;53.30;;;;;;5093481;28;19916;-78
2023/01/16 08:12:14;;;;;;;;;;;18.70;53.40;;;;;;5094374;28;19908;-79
2023/01/16 08:14:40;;;;;;;;;;;18.60;53.20;;;;;;5092398;28;19951;-79
2023/01/16 08:17:06;;;;;;;;;;;18.60;53.20;;;;;;5094357;28;19948;-79
2023/01/16 08:19:31;;;;;;;;;;;18.60;53.30;;;;;;5094797;28;19915;-79
2023/01/16 08:22:06;;;;;;;;;;;18.60;53.30;;;;;;5095215;28;19931;-79
2023/01/16 08:24:32;;;;;;;;;;;18.60;53.30;;;;;;5095475;28;19970;-79
2023/01/16 08:26:58;;;;;;;;;;;18.60;53.40;;;;;;5095381;28;19908;-79
2023/01/16 08:29:25;;;;;;;;;;;18.50;53.40;;;;;;5094168;28;19916;-79
2023/01/16 08:31:50;;;;;;;;;;;18.40;53.50;;;;;;5094022;28;20471;-78
2023/01/16 08:34:16;;;;;;;;;;;18.30;53.60;;;;;;5093956;28;20007;-78
2023/01/16 08:36:41;;;;;;;;;;;18.20;53.80;;;;;;5089747;28;20234;-79
2023/01/16 08:39:09;;;;;;;;;;;18.10;54.10;;;;;;5091159;28;19908;-79
2023/01/16 08:52:40;;;;;;;;;;;18.50;53.60;;;;;;5093883;28;19934;-79
2023/01/16 08:55:07;;;;;;;;;;;18.70;53.30;;;;;;5093366;28;19908;-79
2023/01/16 08:57:33;;;;;;;;;;;18.70;53.20;;;;;;5093393;28;19998;-79
2023/01/16 08:59:59;;;;;;;;;;;18.70;53.10;;;;;;5093985;28;20053;-79
2023/01/16 09:02:26;;;;;;;;;;;18.70;53.20;;;;;;5094254;28;19907;-79
2023/01/16 09:04:57;;;;;;;;;;;18.70;53.00;;;;;;5092784;28;19908;-79
2023/01/16 09:07:23;;;;;;;;;;;18.80;53.20;;;;;;5091267;28;19971;-79
2023/01/16 09:09:48;;;;;;;;;;;18.80;53.10;;;;;;5091751;28;19920;-80
2023/01/16 09:14:58;;;;;;;;;;;18.90;53.00;;;;;;5092380;28;19920;-79
2023/01/16 09:17:25;;;;;;;;;;;18.80;53.00;;;;;;5091493;28;19912;-79
2023/01/16 09:19:51;;;;;;;;;;;18.90;53.10;;;;;;5092688;28;19919;-79
2023/01/16 09:22:17;;;;;;;;;;;18.90;53.10;;;;;;5092981;28;19908;-79
2023/01/16 09:24:43;;;;;;;;;;;18.90;52.80;;;;;;5092062;28;19908;-79
2023/01/16 09:27:08;;;;;;;;;;;18.90;52.80;;;;;;5092291;28;19908;-79
2023/01/16 09:29:34;;;;;;;;;;;18.80;53.20;;;;;;5090732;28;20346;-78
2023/01/16 09:32:06;;;;;;;;;;;18.80;53.10;;;;;;5091245;28;19927;-78
2023/01/16 09:34:32;;;;;;;;;;;18.80;53.30;;;;;;5090615;28;20036;-78
2023/01/16 09:36:58;;;;;;;;;;;18.70;53.40;;;;;;5089736;28;20529;-79
2023/01/16 09:39:23;;;;;;;;;;;18.60;53.40;;;;;;5090852;28;19919;-79
2023/01/16 09:44:42;;;;;;;;;;;18.60;53.60;;;;;;5086963;28;19923;-78
2023/01/16 09:47:08;;;;;;;;;;;18.50;53.50;;;;;;5086665;28;19957;-78
2023/01/16 09:49:47;;;;;;;;;;;18.50;53.70;;;;;;5088531;28;19923;-79
2023/01/16 10:00:35;;;;;;;;;;;18.20;53.90;;;;;;5094332;28;19914;-79
2023/01/16 10:03:01;;;;;;;;;;;18.20;54.20;;;;;;5094910;28;19912;-79
2023/01/16 10:06:02;;;;;;;;;;;18.20;54.10;;;;;;5096932;28;19948;-79
2023/01/16 10:08:46;;;;;;;;;;;18.20;54.10;;;;;;5056777;28;19909;-79
2023/01/16 10:11:18;;;;;;;;;;;18.10;54.00;;;;;;5090191;28;20012;-79
2023/01/16 10:13:46;;;;;;;;;;;18.10;54.00;;;;;;5093812;28;19908;-79
2023/01/16 10:16:27;;;;;;;;;;;18.10;54.10;;;;;;5095795;28;19908;-79
2023/01/16 10:19:12;;;;;;;;;;;18.10;54.00;;;;;;5094557;28;19908;-79
2023/01/16 10:21:49;;;;;;;;;;;18.00;54.10;;;;;;5094310;28;19908;-79
2023/01/16 10:24:30;;;;;;;;;;;18.10;53.90;;;;;;5094814;28;19915;-78
2023/01/16 10:26:58;;;;;;;;;;;18.20;53.90;;;;;;5094412;28;19944;-79
2023/01/16 10:29:24;;;;;;;;;;;18.20;53.70;;;;;;5094285;28;19916;-79
2023/01/16 10:32:10;;;;;;;;;;;18.30;53.80;;;;;;5093614;28;19912;-80
2023/01/16 10:34:43;;;;;;;;;;;18.30;53.70;;;;;;5092674;28;20390;-79
2023/01/16 10:37:09;;;;;;;;;;;18.30;53.50;;;;;;5094535;28;19916;-79
2023/01/16 10:39:37;;;;;;;;;;;18.30;53.50;;;;;;5093195;28;20267;-79
2023/01/16 10:50:27;;;;;;;;;;;18.40;53.40;;;;;;5092373;28;20514;-79
2023/01/16 10:52:53;;;;;;;;;;;18.50;53.20;;;;;;5093676;28;19908;-79
2023/01/16 10:55:18;;;;;;;;;;;18.50;53.30;;;;;;5094635;28;19951;-79
2023/01/16 10:57:50;;;;;;;;;;;18.60;53.00;;;;;;5095052;28;20002;-79
2023/01/16 11:00:21;;;;;;;;;;;18.60;52.80;;;;;;5095315;28;19973;-79
2023/01/16 11:02:49;;;;;;;;;;;18.80;52.70;;;;;;5095992;28;19943;-79
2023/01/16 11:05:32;;;;;;;;;;;18.80;52.70;;;;;;5094451;28;19973;-79
2023/01/16 11:08:12;;;;;;;;;;;18.90;52.80;;;;;;5095891;28;19915;-79
2023/01/16 11:10:38;;;;;;;;;;;18.90;52.70;;;;;;5093353;28;19923;-79
2023/01/16 11:18:52;;;;;;;;;;;18.80;53.00;;;;;;5070235;28;19915;-79
2023/01/16 11:21:26;;;;;;;;;;;18.80;52.70;;;;;;5093438;28;19908;-79
2023/01/16 11:24:10;;;;;;;;;;;18.80;52.60;;;;;;5093808;28;19973;-79
2023/01/16 11:26:36;;;;;;;;;;;18.80;52.60;;;;;;5092511;28;20201;-80
2023/01/16 11:29:02;;;;;;;;;;;18.80;52.60;;;;;;5092543;28;20269;-80
2023/01/16 11:31:31;;;;;;;;;;;18.70;52.50;;;;;;5094211;28;19916;-80
2023/01/16 11:34:00;;;;;;;;;;;18.70;52.50;;;;;;5091697;28;20177;-79
2023/01/16 11:36:29;;;;;;;;;;;18.70;52.50;;;;;;5092594;28;20273;-79
2023/01/16 11:38:55;;;;;;;;;;;18.70;52.50;;;;;;5092778;28;19908;-80
2023/01/16 11:41:34;;;;;;;;;;;18.60;52.30;;;;;;5091196;28;19912;-79
2023/01/16 11:46:59;;;;;;;;;;;18.80;52.20;;;;;;5091397;28;19918;-80
2023/01/16 11:49:45;;;;;;;;;;;18.90;52.10;;;;;;5090743;28;20361;-80
2023/01/16 11:52:12;;;;;;;;;;;18.90;51.90;;;;;;5087360;28;19927;-79
2023/01/16 11:54:38;;;;;;;;;;;18.80;52.30;;;;;;5086882;28;19908;-79
2023/01/16 11:57:14;;;;;;;;;;;18.80;51.90;;;;;;5089090;28;19923;-79
2023/01/16 12:00:00;;;;;;;;;;;18.80;52.00;;;;;;5090248;28;19969;-79
2023/01/16 12:02:47;;;;;;;;;;;18.80;51.90;;;;;;5090322;28;19969;-79
2023/01/16 12:08:29;;;;;;;;;;;18.80;51.80;;;;;;5092494;28;19962;-79
2023/01/16 12:11:05;;;;;;;;;;;18.80;51.70;;;;;;5074669;28;19934;-79
2023/01/16 12:16:29;;;;;;;;;;;18.80;51.80;;;;;;5090484;28;20001;-79
2023/01/16 12:19:13;;;;;;;;;;;18.70;51.90;;;;;;5091361;28;19971;-79
2023/01/16 12:21:46;;;;;;;;;;;18.60;52.10;;;;;;5088963;28;19947;-79
2023/01/16 12:24:30;;;;;;;;;;;18.50;52.10;;;;;;5089986;28;19923;-79
2023/01/16 12:27:05;;;;;;;;;;;18.40;52.30;;;;;;5092056;28;20281;-78
2023/01/16 12:29:49;;;;;;;;;;;18.20;52.50;;;;;;5091577;28;19990;-78
2023/01/16 12:32:26;;;;;;;;;;;18.10;52.80;;;;;;5090041;28;19916;-78
2023/01/16 12:34:58;;;;;;;;;;;17.90;52.90;;;;;;5088612;28;20045;-79
2023/01/16 12:37:42;;;;;;;;;;;17.80;53.20;;;;;;5091824;28;20181;-79
2023/01/16 12:40:17;;;;;;;;;;;17.70;53.20;;;;;;5090292;28;20549;-79
2023/01/16 12:45:48;;;;;;;;;;;18.30;52.60;;;;;;5092189;28;20523;-79
2023/01/16 12:48:32;;;;;;;;;;;18.70;52.10;;;;;;5091900;28;20289;-79
2023/01/16 12:50:58;;;;;;;;;;;18.80;51.50;;;;;;5090074;28;19926;-79
2023/01/16 12:53:29;;;;;;;;;;;18.80;51.60;;;;;;5089624;28;19908;-78
2023/01/16 12:56:22;;;;;;;;;;;18.80;51.50;;;;;;5089327;28;19908;-78
2023/01/16 12:58:51;;;;;;;;;;;18.80;51.60;;;;;;5089043;28;20009;-78
2023/01/16 13:01:18;;;;;;;;;;;18.80;51.60;;;;;;5089184;28;20221;-78
2023/01/16 13:03:53;;;;;;;;;;;18.80;51.50;;;;;;5089016;28;20560;-80
2023/01/16 13:06:34;;;;;;;;;;;18.80;51.60;;;;;;5091748;28;20465;-80
2023/01/16 13:09:06;;;;;;;;;;;18.80;51.50;;;;;;5090466;28;19908;-79
2023/01/16 13:14:20;;;;;;;;;;;18.90;51.40;;;;;;5091350;28;19919;-79
2023/01/16 13:17:07;;;;;;;;;;;18.90;51.40;;;;;;5090645;28;19919;-78
2023/01/16 13:19:37;;;;;;;;;;;18.90;51.40;;;;;;5083913;28;19939;-78
2023/01/16 13:22:24;;;;;;;;;;;18.90;51.40;;;;;;5088993;28;19981;-79
2023/01/16 13:24:51;;;;;;;;;;;18.80;51.70;;;;;;5092634;28;19908;-80
2023/01/16 13:27:20;;;;;;;;;;;18.80;51.60;;;;;;5091787;28;19944;-79
2023/01/16 13:29:56;;;;;;;;;;;18.60;51.60;;;;;;5090002;28;20533;-79
2023/01/16 13:32:25;;;;;;;;;;;18.60;51.80;;;;;;5088410;28;19922;-79
2023/01/16 13:34:56;;;;;;;;;;;18.60;51.80;;;;;;5093176;28;19978;-79
2023/01/16 13:37:28;;;;;;;;;;;18.60;51.90;;;;;;5095452;28;20006;-79
2023/01/16 13:40:09;;;;;;;;;;;18.60;52.10;;;;;;5096154;28;19943;-79
2023/01/16 13:42:37;;;;;;;;;;;18.50;52.10;;;;;;5096085;28;19919;-79
2023/01/16 13:47:51;;;;;;;;;;;18.40;52.20;;;;;;5096110;28;19919;-80
2023/01/16 13:50:31;;;;;;;;;;;18.30;52.30;;;;;;5094666;28;19970;-79
2023/01/16 13:53:00;;;;;;;;;;;18.30;52.40;;;;;;5091343;28;19977;-79
2023/01/16 13:55:33;;;;;;;;;;;18.30;52.40;;;;;;5092976;28;19915;-79
2023/01/16 13:58:18;;;;;;;;;;;18.30;52.30;;;;;;5094440;28;20555;-79
2023/01/16 14:00:44;;;;;;;;;;;18.30;52.40;;;;;;5094709;28;19908;-79
2023/01/16 14:03:18;;;;;;;;;;;18.30;52.40;;;;;;5095317;28;19958;-79
2023/01/16 14:05:46;;;;;;;;;;;18.30;52.40;;;;;;5094428;28;19931;-79
2023/01/16 14:11:36;;;;;;;;;;;18.30;52.40;;;;;;5094984;28;19920;-79
2023/01/16 14:16:30;;;;;;;;;;;18.40;52.20;;;;;;5094100;28;20204;-79
2023/01/16 14:17:06;;;;;;;;;;;18.50;52.20;;;;;;5093489;28;19908;-80
2023/01/16 14:19:55;;;;;;;;;;;18.60;52.10;;;;;;5091512;28;19923;-79
2023/01/16 14:24:52;;;;;;;;;;;18.60;52.00;;;;;;5093709;28;20410;-79
2023/01/16 14:27:19;;;;;;;;;;;18.60;52.00;;;;;;5093500;28;19926;-79
2023/01/16 14:29:49;;;;;;;;;;;18.60;52.00;;;;;;5093885;28;19934;-79
2023/01/16 14:32:14;;;;;;;;;;;18.50;52.00;;;;;;5092559;28;19994;-79
2023/01/16 14:34:49;;;;;;;;;;;18.50;52.00;;;;;;5091563;28;20011;-79
2023/01/16 14:37:19;;;;;;;;;;;18.60;52.00;;;;;;5095433;28;19912;-79
2023/01/16 14:39:52;;;;;;;;;;;18.60;52.00;;;;;;5094082;28;20496;-79
2023/01/16 14:56:23;;;;;;;;;;;18.50;52.10;;;;;;5094066;28;19919;-80
2023/01/16 14:59:03;;;;;;;;;;;18.50;52.10;;;;;;5094259;28;20297;-79
2023/01/16 15:04:18;;;;;;;;;;;18.50;52.10;;;;;;5091670;28;19915;-79
2023/01/16 15:06:44;;;;;;;;;;;18.40;52.10;;;;;;5090304;28;19908;-79
2023/01/16 15:09:15;;;;;;;;;;;18.40;52.20;;;;;;5091510;28;19955;-79
2023/01/16 15:11:45;;;;;;;;;;;18.40;52.20;;;;;;5090547;28;19957;-80
2023/01/16 15:14:30;;;;;;;;;;;18.30;52.20;;;;;;5091679;28;19909;-79
2023/01/16 15:22:44;;;;;;;;;;;18.40;52.20;;;;;;5093000;28;19938;-80
2023/01/16 15:25:28;;;;;;;;;;;18.40;52.20;;;;;;5093108;28;19908;-79
2023/01/16 15:28:14;;;;;;;;;;;18.40;52.20;;;;;;5091631;28;19914;-78
2023/01/16 15:30:42;;;;;;;;;;;18.50;52.20;;;;;;5093186;28;19998;-78
2023/01/16 15:36:11;;;;;;;;;;;18.50;52.20;;;;;;5093257;28;19919;-78
2023/01/16 15:38:37;;;;;;;;;;;18.50;52.20;;;;;;5093139;28;19915;-78
2023/01/16 15:41:03;;;;;;;;;;;18.50;52.20;;;;;;5093601;28;19908;-78
2023/01/16 15:46:33;;;;;;;;;;;18.50;52.20;;;;;;5094536;28;19948;-78
2023/01/16 15:49:08;;;;;;;;;;;18.50;52.20;;;;;;5092455;28;19988;-78
2023/01/16 15:51:33;;;;;;;;;;;18.50;52.20;;;;;;5093187;28;19912;-78
2023/01/16 15:54:00;;;;;;;;;;;18.40;52.30;;;;;;5092244;28;19915;-78
2023/01/16 15:56:31;;;;;;;;;;;18.40;52.30;;;;;;5092458;28;20147;-78
2023/01/16 15:58:56;;;;;;;;;;;18.40;52.30;;;;;;5092764;28;20019;-79
2023/01/16 16:01:26;;;;;;;;;;;18.40;52.40;;;;;;5093817;28;20020;-78
2023/01/16 16:03:52;;;;;;;;;;;18.40;52.40;;;;;;5091476;28;19908;-79
2023/01/16 16:06:18;;;;;;;;;;;18.50;52.40;;;;;;5091622;28;19919;-79
2023/01/16 16:08:45;;;;;;;;;;;18.50;52.60;;;;;;5091684;28;20398;-80
2023/01/16 16:13:59;;;;;;;;;;;18.50;52.60;;;;;;5092751;28;20070;-78
2023/01/16 16:19:37;;;;;;;;;;;18.50;53.10;;;;;;5091398;28;19915;-78
2023/01/16 16:24:52;;;;;;;;;;;18.40;53.40;;;;;;5089775;28;20000;-78